Time;durP1;ratioP1;P1;durP2;ratioP2;P2;SDS_P1;SDS_P2;PMS_P1;PMS_P2;Temp;Humidity;BMP_temperature;BMP_pressure;BME280_temperature;BME280_humidity;BME280_pressure;Samples;Min_cycle;Max_cycle;Signal;HPM_P1;HPM_P2
2022/08/11 00:00:42;;;;;;;2.25;1.20;;;24.10;43.40;;;;;;4949859;28;20018;-78
2022/08/11 00:03:10;;;;;;;2.25;1.20;;;24.00;44.20;;;;;;4904342;28;20023;-78
2022/08/11 00:05:46;;;;;;;2.78;1.27;;;23.90;43.40;;;;;;4957150;28;20076;-78
2022/08/11 00:08:21;;;;;;;2.00;1.30;;;23.90;44.40;;;;;;4960664;28;20029;-79
2022/08/11 00:11:06;;;;;;;2.27;1.30;;;23.80;44.30;;;;;;4926714;28;20035;-78
2022/08/11 00:13:44;;;;;;;2.45;1.17;;;23.70;44.00;;;;;;4943585;28;21901;-78
2022/08/11 00:16:18;;;;;;;2.28;1.20;;;23.70;44.60;;;;;;4951673;28;20365;-78
2022/08/11 00:18:50;;;;;;;1.60;1.30;;;23.60;44.30;;;;;;4923730;28;20256;-78
2022/08/11 00:21:19;;;;;;;2.00;1.17;;;23.60;44.10;;;;;;4945762;28;20026;-78
2022/08/11 00:23:51;;;;;;;1.53;1.20;;;23.50;44.00;;;;;;4942281;28;20026;-78
2022/08/11 00:26:18;;;;;;;1.42;1.20;;;23.40;44.30;;;;;;4941328;28;20057;-78
2022/08/11 00:28:44;;;;;;;1.65;1.20;;;23.40;44.30;;;;;;4936159;28;20663;-78
2022/08/11 00:31:30;;;;;;;1.97;1.30;;;23.30;44.40;;;;;;4928074;28;20196;-78
2022/08/11 00:33:59;;;;;;;1.95;1.20;;;23.30;45.80;;;;;;4915976;28;20486;-78
2022/08/11 00:36:49;;;;;;;2.10;1.30;;;23.20;44.80;;;;;;4948154;28;20106;-78
2022/08/11 00:39:19;;;;;;;2.55;1.38;;;23.20;45.90;;;;;;4949220;28;20511;-78
2022/08/11 00:42:17;;;;;;;2.70;1.23;;;23.20;45.80;;;;;;4943345;28;20952;-78
2022/08/11 00:45:06;;;;;;;1.83;1.13;;;23.10;46.20;;;;;;4939230;28;20114;-78
2022/08/11 00:47:35;;;;;;;1.90;1.20;;;23.10;46.30;;;;;;4940839;28;21286;-78
2022/08/11 00:50:23;;;;;;;2.70;1.20;;;23.00;45.00;;;;;;4925197;28;20311;-78
2022/08/11 00:52:58;;;;;;;1.58;1.17;;;23.00;46.50;;;;;;4957950;28;20483;-78
2022/08/11 00:56:01;;;;;;;3.28;1.35;;;23.00;46.20;;;;;;4954107;28;20399;-78
2022/08/11 00:58:48;;;;;;;1.20;1.00;;;22.90;46.70;;;;;;4944255;28;20046;-78
2022/08/11 01:01:17;;;;;;;1.60;1.20;;;22.90;46.60;;;;;;4964328;28;20765;-78
2022/08/11 01:04:20;;;;;;;2.13;1.33;;;22.80;45.90;;;;;;4959514;28;20546;-78
2022/08/11 01:07:06;;;;;;;1.58;1.30;;;22.70;47.00;;;;;;4907522;28;20031;-78
2022/08/11 01:09:44;;;;;;;2.22;1.27;;;22.70;46.10;;;;;;4936933;28;20687;-80
2022/08/11 01:12:13;;;;;;;3.27;1.40;;;22.70;45.80;;;;;;4948527;28;20041;-80
2022/08/11 01:15:12;;;;;;;2.60;1.40;;;22.60;46.40;;;;;;4929143;28;20685;-80
2022/08/11 01:17:44;;;;;;;2.03;1.38;;;22.60;47.30;;;;;;4925655;28;20066;-78
2022/08/11 01:20:47;;;;;;;1.85;1.40;;;22.50;46.90;;;;;;4939216;28;20116;-78
2022/08/11 01:23:48;;;;;;;1.95;1.25;;;22.50;47.60;;;;;;4943137;28;20034;-78
2022/08/11 01:26:45;;;;;;;1.77;1.30;;;22.40;47.60;;;;;;4933861;28;20039;-78
2022/08/11 01:29:48;;;;;;;2.55;1.30;;;22.40;47.70;;;;;;4934669;28;20045;-77
2022/08/11 01:32:32;;;;;;;1.85;1.38;;;22.30;47.80;;;;;;4932942;28;20046;-78
2022/08/11 01:34:58;;;;;;;1.55;1.30;;;22.30;48.00;;;;;;4938616;28;20038;-78
2022/08/11 01:37:57;;;;;;;1.97;1.37;;;22.20;46.70;;;;;;4914265;28;20674;-78
2022/08/11 01:40:38;;;;;;;1.50;1.40;;;22.10;48.30;;;;;;4948376;28;20487;-78
2022/08/11 01:46:38;;;;;;;2.67;1.42;;;22.00;48.60;;;;;;4949126;28;20034;-78
2022/08/11 01:49:19;;;;;;;1.83;1.30;;;21.90;47.50;;;;;;4932064;28;20511;-78
2022/08/11 01:52:12;;;;;;;2.00;1.20;;;21.80;48.10;;;;;;4920775;28;20027;-78
2022/08/11 01:55:02;;;;;;;1.30;1.20;;;21.80;49.00;;;;;;4943647;28;20099;-80
2022/08/11 01:57:35;;;;;;;1.65;1.40;;;21.70;48.40;;;;;;4926241;28;20034;-80
2022/08/11 02:00:10;;;;;;;2.55;1.50;;;21.70;48.80;;;;;;4930516;28;20987;-80
2022/08/11 02:02:46;;;;;;;1.57;1.40;;;21.60;48.90;;;;;;4955077;28;20093;-78
2022/08/11 02:05:46;;;;;;;1.65;1.40;;;21.60;49.30;;;;;;4947624;28;20551;-78
2022/08/11 02:08:35;;;;;;;2.13;1.48;;;21.50;49.80;;;;;;4937854;28;20058;-78
2022/08/11 02:11:31;;;;;;;1.83;1.33;;;21.50;49.60;;;;;;4943981;28;20027;-78
2022/08/11 02:14:15;;;;;;;2.08;1.50;;;21.40;49.60;;;;;;4943810;28;20142;-78
2022/08/11 02:16:52;;;;;;;2.07;1.40;;;21.30;48.50;;;;;;4907483;28;20332;-78
2022/08/11 02:25:34;;;;;;;2.78;1.30;;;21.20;50.00;;;;;;4962171;28;20019;-78
2022/08/11 02:28:27;;;;;;;2.22;1.40;;;21.10;48.90;;;;;;4950504;28;20228;-78
2022/08/11 02:34:39;;;;;;;2.85;1.33;;;21.00;50.90;;;;;;4944522;28;20038;-78
2022/08/11 02:37:44;;;;;;;3.03;1.40;;;20.90;50.60;;;;;;4939798;28;20066;-78
2022/08/11 02:40:37;;;;;;;1.70;1.20;;;20.90;51.20;;;;;;4908138;28;20070;-78
2022/08/11 02:43:20;;;;;;;1.75;1.40;;;20.80;51.10;;;;;;4938602;28;20582;-78
2022/08/11 02:45:46;;;;;;;1.93;1.20;;;20.80;50.40;;;;;;4942845;28;20193;-78
2022/08/11 02:51:53;;;;;;;2.15;1.30;;;20.60;51.40;;;;;;4945280;28;20038;-78
2022/08/11 02:54:37;;;;;;;3.35;1.45;;;20.60;51.50;;;;;;4922712;28;20081;-78
2022/08/11 02:57:14;;;;;;;1.83;1.30;;;20.50;51.40;;;;;;4949172;28;20034;-78
2022/08/11 02:59:49;;;;;;;1.88;1.30;;;20.50;50.50;;;;;;4932251;28;20085;-78
2022/08/11 03:02:26;;;;;;;2.38;1.30;;;20.50;51.50;;;;;;4929786;28;20023;-78
2022/08/11 03:05:20;;;;;;;2.70;1.60;;;20.40;50.50;;;;;;4923856;28;20543;-78
2022/08/11 03:08:05;;;;;;;2.47;1.45;;;20.40;52.50;;;;;;4925767;28;20031;-78
2022/08/11 03:17:32;;;;;;;2.13;1.52;;;20.20;52.00;;;;;;4944269;28;20057;-78
2022/08/11 03:20:27;;;;;;;2.25;1.40;;;20.20;52.60;;;;;;4913490;28;20257;-80
2022/08/11 03:23:16;;;;;;;2.92;1.42;;;20.10;52.80;;;;;;4934879;28;20050;-80
2022/08/11 03:26:12;;;;;;;2.70;1.70;;;20.00;51.10;;;;;;4890538;28;20177;-80
2022/08/11 03:28:47;;;;;;;2.28;1.38;;;20.00;53.00;;;;;;4938965;28;20275;-80
2022/08/11 03:31:15;;;;;;;2.75;1.60;;;19.90;51.80;;;;;;4964222;28;20416;-80
2022/08/11 03:34:01;;;;;;;3.15;1.48;;;19.90;51.60;;;;;;4936678;28;20027;-80
2022/08/11 03:36:51;;;;;;;2.63;1.50;;;19.80;52.40;;;;;;4951141;28;20434;-80
2022/08/11 03:39:28;;;;;;;2.40;1.60;;;19.80;53.40;;;;;;4943748;28;20039;-80
2022/08/11 03:42:06;;;;;;;2.70;1.50;;;19.70;53.40;;;;;;4923445;28;20153;-80
2022/08/11 03:44:52;;;;;;;6.60;1.80;;;19.70;52.20;;;;;;4933845;28;20023;-80
2022/08/11 03:47:42;;;;;;;2.95;1.50;;;19.70;53.90;;;;;;4938064;28;20030;-78
2022/08/11 03:50:23;;;;;;;2.47;1.58;;;19.60;53.70;;;;;;4958406;28;20027;-81
2022/08/11 03:53:01;;;;;;;2.17;1.50;;;19.60;53.70;;;;;;4918297;28;22387;-78
2022/08/11 03:55:55;;;;;;;2.25;1.45;;;19.60;53.70;;;;;;4937339;28;20045;-78
2022/08/11 03:58:30;;;;;;;3.78;1.70;;;19.60;53.80;;;;;;4931711;28;20514;-80
2022/08/11 04:01:27;;;;;;;2.38;1.52;;;19.50;52.60;;;;;;4947848;28;20058;-79
2022/08/11 04:04:31;;;;;;;4.10;1.52;;;19.40;54.10;;;;;;4940912;28;20033;-78
2022/08/11 04:07:20;;;;;;;2.40;1.43;;;19.40;52.70;;;;;;4910346;28;20049;-78
2022/08/11 04:09:55;;;;;;;2.35;1.65;;;19.40;53.60;;;;;;4925190;28;20089;-79
2022/08/11 04:12:43;;;;;;;3.85;1.90;;;19.30;53.00;;;;;;4925359;28;20331;-79
2022/08/11 04:18:58;;;;;;;4.03;1.63;;;19.30;54.90;;;;;;4947158;28;20026;-78
2022/08/11 04:22:02;;;;;;;2.93;1.60;;;19.20;54.90;;;;;;4951285;28;20466;-78
2022/08/11 04:25:04;;;;;;;2.15;1.70;;;19.20;55.00;;;;;;4945788;28;20451;-78
2022/08/11 04:27:52;;;;;;;2.63;1.52;;;19.10;55.10;;;;;;4947403;28;20043;-78
2022/08/11 04:30:36;;;;;;;3.30;1.60;;;19.10;53.90;;;;;;4917315;28;20034;-78
2022/08/11 04:33:23;;;;;;;2.92;1.70;;;19.10;53.70;;;;;;4948863;28;20133;-78
2022/08/11 04:36:01;;;;;;;2.23;1.60;;;19.10;55.50;;;;;;4931780;28;20085;-78
2022/08/11 04:38:44;;;;;;;3.45;1.80;;;19.10;55.40;;;;;;4947835;28;20109;-78
2022/08/11 04:41:19;;;;;;;2.85;1.77;;;19.00;55.70;;;;;;4954619;28;22648;-78
2022/08/11 04:44:11;;;;;;;3.70;1.60;;;19.00;55.50;;;;;;4943532;28;20089;-78
2022/08/11 04:46:56;;;;;;;2.40;1.98;;;19.00;56.20;;;;;;4938445;28;20129;-78
2022/08/11 05:01:54;;;;;;;3.53;1.92;;;18.90;55.80;;;;;;4962597;28;20264;-80
2022/08/11 05:07:48;;;;;;;3.17;1.85;;;18.90;55.80;;;;;;4915206;28;20047;-78
2022/08/11 05:10:35;;;;;;;2.55;1.70;;;18.90;56.80;;;;;;4932532;28;20042;-78
2022/08/11 05:36:24;;;;;;;2.55;1.90;;;19.10;57.30;;;;;;4939085;28;20027;-78
2022/08/11 05:58:35;;;;;;;4.05;2.20;;;19.50;57.10;;;;;;4936645;28;20237;-81
2022/08/11 06:01:02;;;;;;;4.27;1.87;;;19.60;57.40;;;;;;4903375;28;20117;-78
2022/08/11 06:03:31;;;;;;;3.17;1.80;;;19.70;57.40;;;;;;4944283;28;20015;-78
2022/08/11 06:05:58;;;;;;;4.63;2.30;;;19.70;57.50;;;;;;4948187;28;21411;-78
2022/08/11 06:08:34;;;;;;;3.88;2.05;;;19.80;57.60;;;;;;4942354;28;20091;-78
2022/08/11 06:11:03;;;;;;;2.08;1.67;;;19.90;58.60;;;;;;4932828;28;20035;-81
2022/08/11 06:13:30;;;;;;;3.37;1.93;;;20.00;57.90;;;;;;4956645;28;20308;-78
2022/08/11 06:15:57;;;;;;;4.25;2.00;;;20.10;57.70;;;;;;4915359;28;20039;-78
2022/08/11 06:18:24;;;;;;;2.75;1.85;;;20.20;57.70;;;;;;4946636;28;20232;-78
2022/08/11 06:20:52;;;;;;;2.60;1.60;;;20.20;57.70;;;;;;4943498;28;20034;-78
2022/08/11 06:23:21;;;;;;;3.45;2.10;;;20.30;57.80;;;;;;4939367;28;20095;-78
2022/08/11 06:25:49;;;;;;;4.30;2.10;;;20.40;57.80;;;;;;4941133;28;20046;-78
2022/08/11 06:28:18;;;;;;;2.80;1.85;;;20.50;57.80;;;;;;4923872;28;20343;-78
2022/08/11 06:30:45;;;;;;;3.17;1.90;;;20.60;57.80;;;;;;4941764;28;20056;-78
2022/08/11 06:33:18;;;;;;;3.25;1.90;;;20.70;57.80;;;;;;4919922;28;20500;-78
2022/08/11 06:36:06;;;;;;;2.90;1.70;;;20.80;58.10;;;;;;4946136;28;20036;-78
2022/08/11 06:39:08;;;;;;;2.90;1.60;;;20.90;58.30;;;;;;4946863;28;20047;-78
2022/08/11 06:41:52;;;;;;;3.92;1.98;;;21.10;58.40;;;;;;4925258;28;20038;-78
2022/08/11 06:44:28;;;;;;;2.55;1.80;;;21.20;58.00;;;;;;4938081;28;20054;-78
2022/08/11 06:46:59;;;;;;;4.35;2.10;;;21.30;57.90;;;;;;4934212;28;20030;-78
2022/08/11 06:52:18;;;;;;;4.57;1.73;;;21.50;57.70;;;;;;4936991;28;20039;-78
2022/08/11 06:54:55;;;;;;;3.00;1.75;;;21.60;57.30;;;;;;4958501;28;20384;-78
2022/08/11 07:03:09;;;;;;;4.05;2.28;;;22.00;57.20;;;;;;4927485;28;20732;-78
2022/08/11 07:05:44;;;;;;;4.07;1.87;;;22.20;57.70;;;;;;4952350;28;20407;-78
2022/08/11 07:16:57;;;;;;;6.25;2.03;;;22.70;56.90;;;;;;4953015;28;20027;-79
2022/08/11 07:31:13;;;;;;;3.72;2.00;;;23.50;56.40;;;;;;4938972;28;20026;-77
2022/08/11 07:34:17;;;;;;;4.37;2.33;;;23.70;56.10;;;;;;4954516;28;21435;-78
2022/08/11 07:36:49;;;;;;;3.95;2.15;;;23.90;55.70;;;;;;4948152;28;20811;-78
2022/08/11 07:39:25;;;;;;;4.03;2.20;;;24.00;55.40;;;;;;4942022;28;20042;-78
2022/08/11 07:41:53;;;;;;;3.60;2.30;;;24.20;55.30;;;;;;4947879;28;20043;-79
2022/08/11 07:44:21;;;;;;;3.40;2.25;;;24.30;55.30;;;;;;4925883;28;21068;-78
2022/08/11 07:52:32;;;;;;;3.17;1.90;;;24.80;54.90;;;;;;4950749;28;20411;-79
2022/08/11 07:55:07;;;;;;;4.22;2.30;;;25.00;55.00;;;;;;4937165;28;20030;-78
2022/08/11 08:19:43;;;;;;;5.65;2.10;;;27.50;53.80;;;;;;4945233;28;20157;-77
2022/08/11 08:22:10;;;;;;;3.70;1.95;;;27.80;52.70;;;;;;4905154;28;20324;-78
2022/08/11 08:24:40;;;;;;;6.70;2.10;;;28.10;52.40;;;;;;4922110;28;20316;-78
2022/08/11 08:27:08;;;;;;;1.63;1.53;;;28.30;52.50;;;;;;4882515;28;1148484;-78
2022/08/11 08:32:26;;;;;;;2.87;2.00;;;29.00;52.50;;;;;;4916503;28;20067;-79
2022/08/11 08:34:54;;;;;;;2.72;2.13;;;29.50;52.90;;;;;;4963092;28;21083;-78
2022/08/11 08:37:23;;;;;;;3.45;2.00;;;29.90;52.70;;;;;;4930686;28;20161;-79
2022/08/11 08:39:49;;;;;;;3.20;2.00;;;30.40;52.40;;;;;;4931101;28;20280;-79
2022/08/11 08:42:26;;;;;;;2.92;2.00;;;31.00;52.40;;;;;;4936399;28;20343;-79
2022/08/11 08:45:10;;;;;;;2.43;2.20;;;31.50;50.00;;;;;;4945178;28;20134;-78
2022/08/11 08:47:46;;;;;;;3.95;2.20;;;32.10;50.70;;;;;;4939131;28;20233;-79
2022/08/11 08:50:21;;;;;;;2.53;1.92;;;32.80;48.80;;;;;;4943801;28;20039;-78
2022/08/11 08:52:54;;;;;;;3.63;2.15;;;33.40;48.80;;;;;;4928215;28;20121;-79
2022/08/11 08:55:20;;;;;;;3.70;2.05;;;34.00;48.00;;;;;;4956502;28;20451;-79
2022/08/11 08:57:49;;;;;;;2.80;2.17;;;34.50;48.20;;;;;;4946682;28;20301;-79
2022/08/11 09:00:16;;;;;;;2.80;2.13;;;35.00;46.40;;;;;;4944415;28;20038;-79
2022/08/11 09:02:43;;;;;;;4.32;2.22;;;35.50;45.50;;;;;;4952912;28;20323;-78
2022/08/11 09:05:09;;;;;;;2.85;2.40;;;36.00;44.60;;;;;;4944818;28;20069;-79
2022/08/11 09:07:36;;;;;;;2.50;2.30;;;36.30;43.60;;;;;;4926208;28;20668;-79
2022/08/11 09:10:04;;;;;;;2.53;2.13;;;36.70;42.20;;;;;;4949810;28;20067;-79
2022/08/11 09:12:33;;;;;;;2.90;2.30;;;37.10;41.40;;;;;;4939874;28;20093;-79
2022/08/11 09:15:02;;;;;;;2.75;2.13;;;37.40;40.40;;;;;;4949560;28;20565;-79
2022/08/11 09:17:30;;;;;;;2.75;2.47;;;37.70;39.90;;;;;;4941453;28;20134;-79
2022/08/11 09:19:59;;;;;;;2.90;2.53;;;37.90;38.70;;;;;;4924054;28;20047;-79
2022/08/11 09:27:59;;;;;;;2.60;2.40;;;38.70;37.80;;;;;;4947637;28;20030;-79
2022/08/11 09:30:26;;;;;;;3.45;2.70;;;38.90;37.20;;;;;;4946057;28;20035;-78
2022/08/11 09:32:56;;;;;;;3.27;2.40;;;39.20;36.40;;;;;;4942504;28;20606;-79
2022/08/11 09:35:33;;;;;;;3.80;2.70;;;39.40;36.30;;;;;;4945129;28;20023;-80
2022/08/11 09:40:49;;;;;;;3.00;2.80;;;39.80;34.70;;;;;;4948884;28;20035;-79
2022/08/11 09:46:03;;;;;;;2.90;2.60;;;40.10;33.20;;;;;;4945494;28;20030;-79
2022/08/11 09:48:38;;;;;;;3.17;2.90;;;40.30;33.00;;;;;;4931830;28;20262;-79
2022/08/11 09:51:06;;;;;;;3.63;2.80;;;40.40;32.00;;;;;;4946571;28;20039;-79
2022/08/11 09:53:35;;;;;;;2.95;2.70;;;40.60;31.00;;;;;;4934189;28;20058;-79
2022/08/11 09:58:48;;;;;;;3.20;2.87;;;40.80;31.30;;;;;;4952344;28;20125;-79
2022/08/11 10:01:25;;;;;;;2.83;2.63;;;40.90;31.10;;;;;;4946115;28;20243;-79
2022/08/11 10:03:59;;;;;;;2.92;2.63;;;41.20;30.20;;;;;;4956248;28;20022;-79
2022/08/11 10:09:13;;;;;;;3.60;3.00;;;41.40;29.50;;;;;;4949695;28;20235;-79
2022/08/11 10:11:40;;;;;;;3.00;2.40;;;41.50;29.30;;;;;;4968103;28;20174;-79
2022/08/11 10:16:51;;;;;;;3.17;2.88;;;41.60;28.90;;;;;;4969636;28;20034;-79
2022/08/11 10:19:20;;;;;;;4.78;2.97;;;41.80;29.10;;;;;;4952625;28;20030;-79
2022/08/11 10:27:19;;;;;;;3.03;2.83;;;42.20;28.60;;;;;;4926673;28;20257;-78
2022/08/11 10:35:16;;;;;;;4.05;3.75;;;42.50;27.40;;;;;;4957836;28;20617;-78
2022/08/11 10:37:45;;;;;;;3.47;3.17;;;42.60;27.00;;;;;;4925089;28;20031;-78
2022/08/11 10:40:16;;;;;;;3.85;3.55;;;42.70;26.60;;;;;;4940148;28;20531;-79
2022/08/11 10:43:01;;;;;;;4.80;3.45;;;42.70;26.20;;;;;;4962824;28;20074;-80
2022/08/11 10:48:20;;;;;;;4.10;3.70;;;42.90;26.40;;;;;;4947169;28;20041;-78
2022/08/11 10:59:07;;;;;;;3.75;3.38;;;43.30;26.10;;;;;;4957286;28;20034;-79
2022/08/11 11:01:36;;;;;;;4.35;3.60;;;43.50;25.90;;;;;;4945369;28;21373;-79
2022/08/11 11:04:36;;;;;;;4.40;4.07;;;43.70;25.90;;;;;;4943594;28;20115;-79
2022/08/11 11:07:22;;;;;;;3.78;3.38;;;43.80;25.00;;;;;;4933314;28;20194;-79
2022/08/11 11:09:53;;;;;;;3.75;3.45;;;43.90;24.60;;;;;;4931978;28;20019;-79
2022/08/11 11:18:10;;;;;;;3.73;3.20;;;44.30;24.70;;;;;;4930082;28;20245;-79
2022/08/11 11:20:52;;;;;;;4.10;3.70;;;44.30;24.50;;;;;;4947629;28;20058;-79
2022/08/11 11:23:40;;;;;;;6.35;3.97;;;44.40;24.20;;;;;;4939636;28;20554;-78
2022/08/11 11:26:24;;;;;;;3.85;3.55;;;44.50;24.10;;;;;;4946804;28;20727;-79
2022/08/11 11:29:26;;;;;;;6.22;3.75;;;44.60;24.30;;;;;;4934476;28;20094;-80
2022/08/11 11:32:22;;;;;;;3.73;3.40;;;44.70;23.60;;;;;;4942640;28;20038;-79
2022/08/11 11:35:00;;;;;;;3.65;3.35;;;44.70;23.50;;;;;;4940094;28;20051;-79
2022/08/11 11:37:31;;;;;;;4.03;3.58;;;44.70;23.20;;;;;;4948627;28;20101;-79
2022/08/11 11:39:58;;;;;;;3.83;3.53;;;44.80;23.60;;;;;;4930314;28;20364;-79
2022/08/11 11:42:24;;;;;;;4.45;3.88;;;44.80;23.70;;;;;;4946779;28;20252;-78
2022/08/11 11:44:54;;;;;;;3.63;3.33;;;44.90;23.60;;;;;;4922179;28;20035;-79
2022/08/11 11:47:21;;;;;;;3.65;3.35;;;45.00;23.50;;;;;;4914819;28;20335;-79
2022/08/11 11:49:48;;;;;;;3.78;3.47;;;45.10;23.30;;;;;;4946546;28;20034;-79
2022/08/11 11:52:19;;;;;;;3.92;3.63;;;45.10;23.30;;;;;;4941365;28;20149;-79
2022/08/11 11:54:50;;;;;;;3.53;3.22;;;45.20;22.90;;;;;;4928080;28;20030;-79
2022/08/11 12:02:50;;;;;;;4.15;3.78;;;45.40;22.80;;;;;;4950170;28;20034;-79
2022/08/11 12:05:17;;;;;;;4.15;3.13;;;45.50;22.80;;;;;;4945442;28;20125;-80
2022/08/11 12:10:29;;;;;;;3.40;3.20;;;45.60;22.40;;;;;;4946423;28;20240;-79
2022/08/11 12:15:39;;;;;;;3.67;3.38;;;45.70;22.10;;;;;;4915529;28;20042;-78
2022/08/11 12:18:05;;;;;;;3.30;3.10;;;45.70;21.70;;;;;;4945721;28;20062;-78
2022/08/11 12:20:32;;;;;;;3.85;3.45;;;45.70;21.60;;;;;;4926024;28;20543;-78
2022/08/11 12:28:28;;;;;;;3.28;2.97;;;45.60;21.50;;;;;;4965582;28;20491;-80
2022/08/11 12:31:03;;;;;;;3.42;3.13;;;45.60;21.30;;;;;;4940492;28;20203;-80
2022/08/11 12:33:29;;;;;;;3.03;2.83;;;45.60;20.80;;;;;;4921357;28;20050;-79
2022/08/11 12:35:59;;;;;;;3.13;2.93;;;45.60;21.40;;;;;;4920640;28;20602;-79
2022/08/11 12:38:25;;;;;;;3.22;2.92;;;45.60;21.00;;;;;;4960581;28;20062;-79
2022/08/11 12:46:33;;;;;;;3.15;2.95;;;45.60;20.70;;;;;;4925120;28;20023;-78
2022/08/11 12:52:00;;;;;;;2.70;2.50;;;45.60;20.20;;;;;;4938826;28;20161;-80
2022/08/11 12:54:48;;;;;;;3.70;3.42;;;45.60;20.50;;;;;;4950469;28;20062;-79
2022/08/11 13:05:54;;;;;;;3.03;2.83;;;45.50;20.10;;;;;;4942246;28;20042;-78
2022/08/11 13:08:23;;;;;;;2.65;2.45;;;45.40;20.00;;;;;;4943917;28;20082;-79
2022/08/11 13:13:38;;;;;;;2.53;2.33;;;45.40;20.00;;;;;;4929129;28;20423;-80
2022/08/11 13:16:05;;;;;;;2.78;2.50;;;45.30;19.90;;;;;;4917592;28;20038;-79
2022/08/11 13:18:33;;;;;;;2.53;2.33;;;45.20;19.80;;;;;;4955266;28;20049;-79
2022/08/11 13:20:59;;;;;;;4.13;2.40;;;45.20;19.80;;;;;;4937683;28;20031;-79
2022/08/11 13:23:28;;;;;;;2.60;2.40;;;45.10;19.90;;;;;;4945546;28;20026;-79
2022/08/11 13:25:55;;;;;;;2.78;2.58;;;45.10;19.80;;;;;;4941442;28;20803;-79
2022/08/11 13:28:23;;;;;;;2.60;2.40;;;45.20;19.80;;;;;;4929802;28;20031;-79
2022/08/11 13:33:43;;;;;;;2.97;2.78;;;45.20;19.70;;;;;;4921588;28;20035;-80
2022/08/11 13:36:10;;;;;;;2.73;2.53;;;45.20;19.60;;;;;;4948510;28;20031;-79
2022/08/11 13:38:40;;;;;;;2.47;2.25;;;45.20;19.40;;;;;;4959472;28;20422;-80
2022/08/11 13:41:36;;;;;;;2.72;2.47;;;45.10;19.30;;;;;;4930705;28;20370;-79
2022/08/11 13:43:54;;;;;;;2.72;2.50;;;45.10;19.50;;;;;;4930949;28;20184;-79
2022/08/11 13:46:23;;;;;;;3.22;2.42;;;45.00;19.40;;;;;;4920105;28;20491;-80
2022/08/11 13:48:54;;;;;;;2.53;2.10;;;44.90;19.30;;;;;;4938196;28;20218;-79
2022/08/11 13:51:31;;;;;;;2.72;2.20;;;44.80;19.20;;;;;;4944783;28;20133;-79
2022/08/11 13:53:59;;;;;;;2.78;2.58;;;44.80;19.40;;;;;;4938078;28;20156;-79
2022/08/11 13:56:26;;;;;;;2.78;2.58;;;44.60;19.60;;;;;;4948965;28;20023;-80
2022/08/11 13:58:55;;;;;;;3.17;2.67;;;44.60;19.40;;;;;;4930012;28;20534;-80
2022/08/11 14:01:23;;;;;;;2.37;2.17;;;44.40;19.10;;;;;;4944073;28;20387;-80
2022/08/11 14:03:49;;;;;;;2.35;1.80;;;44.20;19.10;;;;;;4916062;28;20223;-79
2022/08/11 14:06:19;;;;;;;3.25;2.58;;;43.90;19.10;;;;;;4933631;28;20550;-80
2022/08/11 14:08:45;;;;;;;2.92;2.10;;;43.70;19.10;;;;;;4938193;28;20667;-79
2022/08/11 14:13:58;;;;;;;2.70;2.50;;;43.40;19.50;;;;;;4947316;28;20439;-79
2022/08/11 14:16:32;;;;;;;2.83;2.17;;;43.30;19.60;;;;;;4926480;28;20706;-80
2022/08/11 14:19:03;;;;;;;2.63;2.42;;;43.20;19.60;;;;;;4935062;28;20523;-79
2022/08/11 14:24:20;;;;;;;2.60;2.30;;;43.20;19.90;;;;;;4940844;28;20436;-79
2022/08/11 14:26:49;;;;;;;2.57;2.13;;;43.20;20.60;;;;;;4931502;28;20039;-79
2022/08/11 14:29:18;;;;;;;2.20;2.00;;;43.20;20.10;;;;;;4946302;28;20519;-78
2022/08/11 14:31:50;;;;;;;5.07;2.58;;;43.20;20.20;;;;;;4921183;28;20952;-79
2022/08/11 14:34:20;;;;;;;2.83;2.28;;;43.30;20.10;;;;;;4911679;28;20050;-80
2022/08/11 14:36:54;;;;;;;2.15;2.00;;;43.20;20.00;;;;;;4945990;28;20077;-80
2022/08/11 14:39:25;;;;;;;3.13;2.10;;;43.20;20.20;;;;;;4943044;28;20521;-79
2022/08/11 14:48:03;;;;;;;2.35;2.15;;;42.90;20.10;;;;;;4937214;28;21847;-79
2022/08/11 14:50:32;;;;;;;2.80;2.60;;;42.70;20.10;;;;;;4933678;28;20773;-78
2022/08/11 14:53:09;;;;;;;2.87;2.20;;;42.60;20.00;;;;;;4919028;28;20051;-78
2022/08/11 14:58:24;;;;;;;4.05;2.60;;;42.50;20.20;;;;;;4933855;28;20218;-79
2022/08/11 15:00:53;;;;;;;3.60;2.50;;;42.30;20.10;;;;;;4945442;28;20511;-79
2022/08/11 15:03:21;;;;;;;3.58;2.22;;;42.20;20.20;;;;;;4935606;28;20085;-79
2022/08/11 15:05:48;;;;;;;3.37;2.13;;;42.20;20.70;;;;;;4941626;28;20058;-79
2022/08/11 15:08:15;;;;;;;3.80;2.08;;;42.00;20.20;;;;;;4950475;28;20049;-79
2022/08/11 15:10:41;;;;;;;2.35;2.15;;;41.90;20.10;;;;;;4946129;28;20035;-79
2022/08/11 15:13:07;;;;;;;2.10;1.90;;;41.80;20.40;;;;;;4937766;28;20112;-79
2022/08/11 15:18:22;;;;;;;2.50;2.30;;;41.50;20.50;;;;;;4937866;28;20171;-79
2022/08/11 15:37:54;;;;;;;2.80;2.05;;;40.20;20.70;;;;;;4947035;28;20408;-78
2022/08/11 15:46:28;;;;;;;2.23;1.90;;;39.70;20.50;;;;;;4933446;28;21511;-78
2022/08/11 15:49:01;;;;;;;2.40;2.00;;;39.50;20.70;;;;;;4949174;28;20031;-79
2022/08/11 15:51:35;;;;;;;2.85;1.90;;;39.30;20.80;;;;;;4934361;28;20233;-79
2022/08/11 15:54:22;;;;;;;2.08;1.88;;;39.20;21.00;;;;;;4926413;28;20129;-78
2022/08/11 15:56:50;;;;;;;2.22;1.60;;;39.10;21.10;;;;;;4936078;28;20031;-79
2022/08/11 16:04:10;;;;;;;2.33;1.70;;;38.90;21.20;;;;;;4959998;28;20209;-79
2022/08/11 16:04:58;;;;;;;1.80;1.70;;;38.80;21.00;;;;;;4941433;28;20035;-79
2022/08/11 16:07:28;;;;;;;2.03;1.70;;;38.70;21.00;;;;;;4906966;28;20039;-79
2022/08/11 16:10:17;;;;;;;2.67;1.80;;;38.70;21.00;;;;;;4945133;28;20026;-79
2022/08/11 16:18:41;;;;;;;2.03;1.83;;;38.40;21.30;;;;;;4936168;28;20062;-79
2022/08/11 16:21:32;;;;;;;2.08;1.90;;;38.40;21.20;;;;;;4936429;28;20369;-79
2022/08/11 16:24:00;;;;;;;1.95;1.80;;;38.30;21.10;;;;;;4930894;28;20043;-79
2022/08/11 16:26:28;;;;;;;2.00;1.80;;;38.20;21.80;;;;;;4941099;28;20050;-79
2022/08/11 16:28:56;;;;;;;2.80;1.67;;;38.20;21.40;;;;;;4931340;28;20437;-78
2022/08/11 16:31:23;;;;;;;2.42;1.75;;;38.10;21.20;;;;;;4955965;28;20788;-79
2022/08/11 16:33:51;;;;;;;1.80;1.70;;;38.10;21.30;;;;;;4938561;28;20411;-79
2022/08/11 16:39:05;;;;;;;2.10;1.90;;;38.00;21.80;;;;;;4916890;28;20030;-78
2022/08/11 16:47:07;;;;;;;2.40;1.90;;;37.80;21.70;;;;;;4934375;28;20023;-80
2022/08/11 16:49:42;;;;;;;2.63;1.70;;;37.80;21.90;;;;;;4926053;28;20090;-79
2022/08/11 16:52:10;;;;;;;2.70;1.70;;;37.70;21.90;;;;;;4936674;28;20027;-79
2022/08/11 16:54:37;;;;;;;2.15;1.88;;;37.70;21.90;;;;;;4937825;28;20561;-79
2022/08/11 16:59:53;;;;;;;1.90;1.80;;;37.60;22.10;;;;;;4947447;28;20236;-79
2022/08/11 17:13:55;;;;;;;2.78;2.10;;;37.30;22.50;;;;;;4945468;28;20034;-78
2022/08/11 17:16:30;;;;;;;2.58;1.95;;;37.20;23.60;;;;;;4947067;28;20502;-79
2022/08/11 17:19:02;;;;;;;2.20;2.00;;;37.20;22.90;;;;;;4948151;28;20065;-79
2022/08/11 17:21:32;;;;;;;2.97;2.20;;;37.10;23.10;;;;;;4926723;28;20060;-79
2022/08/11 17:24:13;;;;;;;2.78;2.10;;;37.00;23.00;;;;;;4920287;28;20041;-78
2022/08/11 17:26:54;;;;;;;4.18;2.17;;;36.90;23.10;;;;;;4930340;28;20062;-79
2022/08/11 17:29:42;;;;;;;2.40;2.10;;;36.80;23.10;;;;;;4954320;28;20015;-78
2022/08/11 17:37:55;;;;;;;2.40;2.10;;;36.60;23.30;;;;;;4941557;28;20031;-78
2022/08/11 17:40:23;;;;;;;2.58;2.10;;;36.50;23.30;;;;;;4940184;28;20050;-79
2022/08/11 17:48:31;;;;;;;3.05;2.05;;;36.30;23.80;;;;;;4954734;28;20042;-79
2022/08/11 17:59:50;;;;;;;2.10;1.90;;;36.20;23.80;;;;;;4952615;28;20026;-79
2022/08/11 17:59:52;;;;;;;2.37;2.10;;;35.90;23.90;;;;;;4935762;28;20129;-78
2022/08/11 18:05:30;;;;;;;2.30;1.90;;;35.80;24.00;;;;;;4926880;28;20051;-78
